Spring Branch, Texas
Current Conditions -  °F | °C
As of 6:15 PM on Friday 24 Oct 2014 (Local Time) from K5C1 Reporting Station
Broken Clouds Broken Clouds  
Wind Chill: 82°   Ceiling: 6000
Heat Index: 82°   Visibility: 10mi
Dew Point: 54°   Wind: 0mph
Humidity: 37%   Direction: NA
Pressure: 30.12"   Gusts: NA
Location:  29.89°N, 98.43°W
Report Text: K5C1 242315Z AUTO 00000KT 10SM BKN060 28/12 A3012 RMK AO1
Loading
Personal Weather Stations






























Interactive Weather Map
Tropical Storm Tracking
New forecast layout! Learn more

10-Day Weather Forecast

Advertisements
Track Severe Weather on mobile